Time;durP1;ratioP1;P1;durP2;ratioP2;P2;SDS_P1;SDS_P2;PMS_P1;PMS_P2;Temp;Humidity;BMP_temperature;BMP_pressure;BME280_temperature;BME280_humidity;BME280_pressure;Samples;Min_cycle;Max_cycle;Signal;HPM_P1;HPM_P2
2023/10/30 00:01:23;;;;;;;7.10;3.97;;;10.90;99.90;;;;;;9800296;30;20248;-78
2023/10/30 00:06:44;;;;;;;9.13;5.03;;;11.00;99.90;;;;;;9817026;30;20235;-78
2023/10/30 00:12:05;;;;;;;7.63;4.80;;;10.90;99.90;;;;;;9821387;30;20238;-78
2023/10/30 00:17:26;;;;;;;7.60;4.93;;;10.80;99.90;;;;;;9821147;30;20274;-78
2023/10/30 00:22:47;;;;;;;8.70;4.47;;;10.80;99.90;;;;;;9821016;30;20205;-78
2023/10/30 00:28:09;;;;;;;10.10;4.50;;;10.70;99.90;;;;;;9820601;30;20249;-78
2023/10/30 00:33:30;;;;;;;5.43;4.23;;;10.60;99.90;;;;;;9820467;30;20533;-78
2023/10/30 00:38:54;;;;;;;10.63;4.50;;;10.60;99.90;;;;;;9819473;30;20274;-78
2023/10/30 00:44:15;;;;;;;6.40;4.40;;;10.60;99.90;;;;;;9819372;30;20208;-78
2023/10/30 00:49:37;;;;;;;6.50;4.10;;;10.60;99.90;;;;;;9806483;30;20230;-78
2023/10/30 00:54:59;;;;;;;7.47;3.70;;;10.60;99.90;;;;;;9819663;30;20196;-78
2023/10/30 01:00:19;;;;;;;5.20;3.60;;;10.50;99.90;;;;;;9809163;30;20350;-78
2023/10/30 01:05:41;;;;;;;8.43;4.00;;;10.50;99.90;;;;;;9802227;30;20198;-78
2023/10/30 01:11:02;;;;;;;8.43;3.97;;;10.40;99.90;;;;;;9819337;30;20283;-78
2023/10/30 01:16:23;;;;;;;10.60;5.23;;;10.30;99.90;;;;;;9819617;30;20204;-80
2023/10/30 01:21:45;;;;;;;5.53;3.77;;;10.30;99.90;;;;;;9818357;30;20214;-78
2023/10/30 01:27:06;;;;;;;3.90;2.80;;;10.30;99.90;;;;;;9818914;30;20214;-78
2023/10/30 01:32:27;;;;;;;5.03;3.10;;;10.40;99.90;;;;;;9805273;30;20216;-77
2023/10/30 01:37:49;;;;;;;6.70;3.00;;;10.40;99.90;;;;;;9818224;30;20212;-79
2023/10/30 01:43:10;;;;;;;3.83;2.90;;;10.40;99.90;;;;;;9818728;30;20252;-76
2023/10/30 01:48:35;;;;;;;7.83;2.50;;;10.50;99.90;;;;;;9792504;30;20536;-79
2023/10/30 01:53:56;;;;;;;3.97;2.47;;;10.50;99.90;;;;;;9818332;30;20206;-77
2023/10/30 01:59:18;;;;;;;3.93;2.33;;;10.50;99.90;;;;;;9804218;30;20213;-78
2023/10/30 02:04:39;;;;;;;2.47;1.97;;;10.50;99.90;;;;;;9817862;30;20259;-78
2023/10/30 02:10:01;;;;;;;4.93;2.67;;;10.50;99.90;;;;;;9817735;30;20231;-78
2023/10/30 02:15:26;;;;;;;3.50;2.07;;;10.50;99.90;;;;;;9820541;30;20202;-78
2023/10/30 02:20:47;;;;;;;2.60;1.90;;;10.50;99.90;;;;;;9824190;30;20202;-78
2023/10/30 02:26:09;;;;;;;6.40;1.83;;;10.50;99.90;;;;;;9811274;30;20221;-78
2023/10/30 02:31:32;;;;;;;3.87;1.90;;;10.40;99.90;;;;;;9823667;30;20457;-77
2023/10/30 02:36:54;;;;;;;3.53;1.90;;;10.40;99.90;;;;;;9823440;30;20206;-78
2023/10/30 02:42:16;;;;;;;5.70;1.70;;;10.40;99.90;;;;;;9824509;30;20207;-79
2023/10/30 02:47:37;;;;;;;4.53;1.53;;;10.30;99.90;;;;;;9824197;30;20492;-78
2023/10/30 02:52:59;;;;;;;3.90;1.67;;;10.30;99.90;;;;;;9823283;30;20442;-78
2023/10/30 02:58:21;;;;;;;2.93;2.00;;;10.40;99.90;;;;;;9823340;30;20241;-78
2023/10/30 03:03:42;;;;;;;3.63;2.57;;;10.30;99.90;;;;;;9822191;30;20256;-78
2023/10/30 03:09:03;;;;;;;5.60;1.90;;;10.30;99.90;;;;;;9823240;30;20282;-77
2023/10/30 03:14:25;;;;;;;5.13;2.30;;;10.40;99.90;;;;;;9822640;30;20256;-79
2023/10/30 03:19:46;;;;;;;2.70;1.73;;;10.30;99.90;;;;;;9822274;30;20205;-78
2023/10/30 03:25:09;;;;;;;4.30;1.90;;;10.30;99.90;;;;;;9822525;30;20379;-78
2023/10/30 03:30:33;;;;;;;2.37;1.80;;;10.30;99.90;;;;;;9809362;30;20279;-78
2023/10/30 03:35:54;;;;;;;3.67;2.27;;;10.20;99.90;;;;;;9822611;30;20204;-78
2023/10/30 03:41:16;;;;;;;1.93;1.40;;;10.40;99.90;;;;;;9822530;30;20317;-78
2023/10/30 03:46:40;;;;;;;3.23;1.50;;;10.40;99.90;;;;;;9821956;30;20502;-78
2023/10/30 03:52:04;;;;;;;2.07;1.90;;;10.40;99.90;;;;;;9822166;30;20229;-77
2023/10/30 03:57:25;;;;;;;2.63;1.77;;;10.40;99.90;;;;;;9821586;30;20210;-78
2023/10/30 04:02:47;;;;;;;2.97;1.83;;;10.40;99.90;;;;;;9812215;30;20245;-78
2023/10/30 04:08:08;;;;;;;2.50;1.70;;;10.40;99.90;;;;;;9820624;30;20234;-78
2023/10/30 04:13:29;;;;;;;4.40;1.93;;;10.40;99.90;;;;;;9821798;30;20199;-78
2023/10/30 04:18:51;;;;;;;3.07;1.90;;;10.40;99.90;;;;;;9820884;30;20260;-78
2023/10/30 04:24:12;;;;;;;2.27;1.70;;;10.30;99.90;;;;;;9821196;30;20205;-78
2023/10/30 04:29:34;;;;;;;3.30;1.60;;;10.30;99.90;;;;;;9820820;30;20249;-78
2023/10/30 04:34:55;;;;;;;3.33;1.97;;;10.30;99.90;;;;;;9771037;30;20312;-78
2023/10/30 04:40:17;;;;;;;6.43;2.67;;;10.30;99.90;;;;;;9783753;30;20206;-78
2023/10/30 04:45:38;;;;;;;4.50;2.27;;;10.40;99.90;;;;;;9791195;30;20206;-78
2023/10/30 04:51:00;;;;;;;3.00;1.93;;;10.20;99.90;;;;;;9819678;30;20246;-79
2023/10/30 04:56:22;;;;;;;2.67;1.90;;;10.20;99.90;;;;;;9818271;30;20258;-78
2023/10/30 05:01:43;;;;;;;4.20;2.27;;;10.20;99.90;;;;;;9818656;30;20246;-77
2023/10/30 05:07:04;;;;;;;2.57;1.97;;;10.10;99.90;;;;;;9819464;30;20606;-77
2023/10/30 05:12:25;;;;;;;2.70;1.57;;;10.10;99.90;;;;;;9819229;30;20533;-78
2023/10/30 05:17:47;;;;;;;2.47;2.00;;;10.10;99.90;;;;;;9818761;30;20274;-79
2023/10/30 05:23:08;;;;;;;3.00;1.67;;;10.10;99.90;;;;;;9819196;30;20203;-80
2023/10/30 05:28:29;;;;;;;5.17;2.50;;;10.10;99.90;;;;;;9819266;30;20232;-79
2023/10/30 05:33:50;;;;;;;2.70;1.50;;;10.10;99.90;;;;;;9818669;30;20511;-78
2023/10/30 05:39:11;;;;;;;6.83;3.00;;;10.10;99.90;;;;;;9818444;30;20284;-79
2023/10/30 05:44:33;;;;;;;9.20;4.57;;;10.00;99.90;;;;;;9818616;30;20566;-78
2023/10/30 05:49:54;;;;;;;2.97;2.00;;;10.00;99.90;;;;;;9818451;30;20250;-79
2023/10/30 05:55:16;;;;;;;2.90;1.27;;;10.00;99.90;;;;;;9817725;30;20202;-78
2023/10/30 06:00:37;;;;;;;2.93;1.67;;;10.00;99.90;;;;;;9817289;30;20252;-80
2023/10/30 06:05:59;;;;;;;4.90;2.30;;;10.00;99.90;;;;;;9817992;30;20205;-77
2023/10/30 06:11:20;;;;;;;3.00;2.07;;;9.90;99.90;;;;;;9817558;30;20241;-77
2023/10/30 06:16:41;;;;;;;3.27;2.17;;;9.90;99.90;;;;;;9816728;30;20260;-77
2023/10/30 06:22:03;;;;;;;4.07;2.27;;;9.90;99.90;;;;;;9816999;30;20372;-77
2023/10/30 06:27:25;;;;;;;4.13;2.70;;;10.00;99.90;;;;;;9817420;30;20224;-78
2023/10/30 06:32:46;;;;;;;8.40;4.17;;;10.20;99.90;;;;;;9817357;30;20348;-78
2023/10/30 06:38:07;;;;;;;5.93;3.53;;;10.20;99.90;;;;;;9817431;30;20203;-76
2023/10/30 06:43:28;;;;;;;6.63;4.00;;;10.30;99.90;;;;;;9817205;30;20204;-77
2023/10/30 06:48:49;;;;;;;11.73;2.80;;;10.40;99.90;;;;;;9817297;30;20246;-77
2023/10/30 06:54:11;;;;;;;4.50;2.73;;;10.60;99.90;;;;;;9817125;30;20209;-78
2023/10/30 06:59:32;;;;;;;4.33;2.17;;;10.70;99.90;;;;;;9816208;30;20206;-77
2023/10/30 07:04:53;;;;;;;6.80;2.97;;;10.70;99.90;;;;;;9823443;30;20204;-79
2023/10/30 07:10:16;;;;;;;4.47;2.33;;;10.70;99.90;;;;;;9822997;30;20616;-78
2023/10/30 07:15:37;;;;;;;5.37;1.93;;;10.80;99.90;;;;;;9822907;30;20236;-78
2023/10/30 07:20:58;;;;;;;3.73;2.17;;;10.80;99.90;;;;;;9823138;30;20385;-78
2023/10/30 07:26:21;;;;;;;3.93;1.90;;;10.80;99.90;;;;;;9822493;30;20235;-77
2023/10/30 07:31:42;;;;;;;3.67;1.43;;;10.70;99.90;;;;;;9822782;30;20229;-78
2023/10/30 07:37:03;;;;;;;6.27;2.00;;;10.70;99.90;;;;;;9821633;30;20510;-76
2023/10/30 07:42:24;;;;;;;5.00;1.73;;;10.90;99.90;;;;;;9821902;30;20268;-77
2023/10/30 07:47:47;;;;;;;2.00;1.40;;;11.10;99.90;;;;;;9821327;30;20257;-77
2023/10/30 07:53:09;;;;;;;5.43;1.70;;;11.20;99.90;;;;;;9821611;30;20245;-78
2023/10/30 07:58:30;;;;;;;2.97;1.60;;;11.40;99.90;;;;;;9820817;30;20400;-76
2023/10/30 08:03:51;;;;;;;7.50;2.03;;;11.40;99.90;;;;;;9793866;30;20569;-78
2023/10/30 08:09:15;;;;;;;2.37;1.10;;;11.60;99.90;;;;;;9811685;30;20610;-80
2023/10/30 08:14:37;;;;;;;3.90;1.90;;;;;;;;;;9798769;30;20224;-76
2023/10/30 08:19:59;;;;;;;1.60;0.88;;;;;;;;;;9816487;30;20210;-77
2023/10/30 08:25:22;;;;;;;3.55;1.67;;;;;;;;;;9815498;30;20237;-78
2023/10/30 08:30:44;;;;;;;5.68;2.00;;;;;;;;;;9815375;30;20233;-82
2023/10/30 08:36:05;;;;;;;4.07;1.80;;;18.10;1.00;;;;;;9815582;30;20195;-76
2023/10/30 08:41:27;;;;;;;2.28;0.95;;;;;;;;;;9814433;30;20498;-76
2023/10/30 08:46:48;;;;;;;1.98;0.95;;;;;;;;;;9813534;30;20217;-79
2023/10/30 08:52:10;;;;;;;5.35;1.40;;;;;;;;;;9812922;30;20260;-75
2023/10/30 08:57:31;;;;;;;4.55;1.20;;;15.50;1.00;;;;;;9801895;30;20203;-78
2023/10/30 09:02:52;;;;;;;2.25;1.30;;;14.80;99.90;;;;;;9807179;30;20309;-75
2023/10/30 09:08:13;;;;;;;3.33;1.23;;;14.30;99.90;;;;;;9813623;30;20202;-78
2023/10/30 09:13:35;;;;;;;2.05;1.38;;;14.00;1.00;;;;;;9803172;30;20260;-76
2023/10/30 09:18:56;;;;;;;3.53;1.27;;;13.80;1.00;;;;;;9778662;30;20264;-78
2023/10/30 09:24:21;;;;;;;3.67;1.50;;;13.80;1.00;;;;;;9802897;30;20260;-76
2023/10/30 09:29:42;;;;;;;2.80;1.10;;;13.70;1.00;;;;;;9813856;30;20256;-76
2023/10/30 09:35:03;;;;;;;3.00;1.17;;;13.50;1.00;;;;;;9814270;30;20225;-83
2023/10/30 09:40:27;;;;;;;4.53;1.40;;;13.60;1.00;;;;;;9812770;30;20235;-82
2023/10/30 09:45:52;;;;;;;7.17;2.00;;;13.70;1.00;;;;;;9799831;30;20213;-79
2023/10/30 09:51:14;;;;;;;6.00;1.90;;;13.60;1.00;;;;;;9811673;30;20287;-84
2023/10/30 09:56:38;;;;;;;3.10;1.30;;;13.60;1.00;;;;;;9796705;30;20198;-81
2023/10/30 10:02:00;;;;;;;6.17;1.07;;;13.70;99.90;;;;;;9808528;30;20242;-79
2023/10/30 10:07:21;;;;;;;21.27;10.90;;;14.00;1.00;;;;;;9811675;30;20229;-79
2023/10/30 10:12:42;;;;;;;3.93;1.77;;;14.10;1.00;;;;;;9811623;30;20269;-81
2023/10/30 10:18:04;;;;;;;4.87;1.67;;;14.30;1.00;;;;;;9812517;30;20202;-78
2023/10/30 10:23:32;;;;;;;5.80;1.80;;;14.30;1.00;;;;;;9814288;30;20252;-82
2023/10/30 10:28:54;;;;;;;7.90;2.05;;;14.30;1.00;;;;;;9812109;30;20220;-79
2023/10/30 10:34:15;;;;;;;6.70;1.77;;;14.20;1.00;;;;;;9811358;30;20288;-78
2023/10/30 10:39:49;;;;;;;4.47;2.67;;;13.90;1.00;;;;;;9817844;30;20294;-79
2023/10/30 10:45:15;;;;;;;7.05;4.25;;;14.20;1.00;;;;;;9817766;30;20214;-77
2023/10/30 10:50:37;;;;;;;5.30;1.80;;;14.20;1.00;;;;;;9818156;30;20568;-77
2023/10/30 10:56:04;;;;;;;8.70;2.55;;;14.30;1.00;;;;;;9817612;30;20576;-78
2023/10/30 11:01:29;;;;;;;8.13;4.90;;;14.90;99.90;;;;;;9796346;30;20615;-79
2023/10/30 11:06:57;;;;;;;4.05;1.48;;;16.00;99.90;;;;;;9815188;30;21725;-79
2023/10/30 11:12:48;;;;;;;10.45;2.63;;;17.40;1.00;;;;;;9815604;30;20255;-79
2023/10/30 11:18:21;;;;;;;6.68;3.67;;;18.30;1.00;;;;;;9818874;30;20298;-80
2023/10/30 11:23:47;;;;;;;10.52;3.10;;;18.70;1.00;;;;;;9816735;30;20276;-79
2023/10/30 11:29:17;;;;;;;10.90;3.88;;;19.30;60.00;;;;;;9794911;30;20240;-79
2023/10/30 11:34:39;;;;;;;7.03;2.00;;;19.30;1.00;;;;;;9781236;30;20217;-79
2023/10/30 11:40:08;;;;;;;18.65;8.45;;;19.10;1.00;;;;;;9810147;30;20214;-83
2023/10/30 11:45:32;;;;;;;4.97;2.70;;;18.50;46.20;;;;;;9794772;30;20211;-79
2023/10/30 11:50:57;;;;;;;8.15;3.38;;;18.30;48.20;;;;;;9816818;30;20265;-81
2023/10/30 11:56:20;;;;;;;6.18;2.58;;;18.50;59.30;;;;;;9817822;30;20215;-79
2023/10/30 12:01:44;;;;;;;3.42;1.90;;;17.80;39.00;;;;;;9801618;30;20261;-78
2023/10/30 12:07:05;;;;;;;4.28;1.80;;;16.90;99.90;;;;;;9793334;30;20302;-77
2023/10/30 12:12:27;;;;;;;5.13;1.88;;;16.30;99.90;;;;;;9816391;30;20556;-78
2023/10/30 12:17:48;;;;;;;4.03;1.83;;;15.90;99.90;;;;;;9816121;30;20206;-79
2023/10/30 12:23:09;;;;;;;12.90;2.35;;;15.50;99.90;;;;;;9817628;30;20400;-79
2023/10/30 12:28:38;;;;;;;7.93;2.13;;;15.50;99.90;;;;;;9806678;30;20285;-79
2023/10/30 12:34:16;;;;;;;8.73;2.55;;;15.40;99.90;;;;;;9814038;30;20216;-78
2023/10/30 12:39:37;;;;;;;9.95;3.25;;;15.40;99.90;;;;;;9814806;30;20296;-79
2023/10/30 12:44:58;;;;;;;19.40;12.73;;;15.50;99.90;;;;;;9814818;30;20214;-81
2023/10/30 12:50:19;;;;;;;10.90;6.07;;;15.90;99.90;;;;;;9801175;30;20241;-78
2023/10/30 12:55:40;;;;;;;11.52;6.75;;;16.60;99.90;;;;;;9814942;30;20247;-77
2023/10/30 13:01:03;;;;;;;8.10;4.78;;;17.60;99.90;;;;;;9814029;30;20243;-80
2023/10/30 13:06:27;;;;;;;12.38;8.65;;;17.80;5.70;;;;;;9813595;30;20492;-77
2023/10/30 13:11:48;;;;;;;16.70;8.55;;;17.40;31.40;;;;;;9814136;30;20238;-78
2023/10/30 13:17:10;;;;;;;13.27;7.43;;;16.90;12.50;;;;;;9785879;30;20201;-80
2023/10/30 13:22:31;;;;;;;10.88;4.10;;;16.30;82.80;;;;;;9792882;30;20265;-81
2023/10/30 13:27:52;;;;;;;8.77;3.35;;;15.60;48.20;;;;;;9814491;30;20212;-82
2023/10/30 13:33:13;;;;;;;7.35;2.78;;;15.10;99.90;;;;;;9801822;30;20405;-83
2023/10/30 13:38:34;;;;;;;5.22;2.50;;;15.00;99.90;;;;;;9815055;30;20259;-82
2023/10/30 13:43:56;;;;;;;7.88;3.38;;;15.00;99.90;;;;;;9814488;30;20282;-79
2023/10/30 13:49:17;;;;;;;7.03;2.72;;;14.80;99.90;;;;;;9814204;30;20323;-80
2023/10/30 13:54:38;;;;;;;6.18;2.03;;;14.60;99.90;;;;;;9814888;30;20210;-85
2023/10/30 13:59:59;;;;;;;6.13;1.40;;;14.30;1.00;;;;;;9815123;30;20240;-81
2023/10/30 14:05:21;;;;;;;5.10;1.85;;;14.10;1.00;;;;;;9778924;30;20223;-83
2023/10/30 14:10:42;;;;;;;4.32;2.58;;;14.10;1.00;;;;;;9804049;30;20251;-83
2023/10/30 14:16:04;;;;;;;9.02;4.20;;;14.10;1.00;;;;;;9821509;30;20206;-80
2023/10/30 14:21:26;;;;;;;14.30;6.20;;;14.10;1.00;;;;;;9823787;30;20226;-81
2023/10/30 14:26:47;;;;;;;15.88;6.38;;;13.90;1.00;;;;;;9809268;30;20513;-83
2023/10/30 14:32:08;;;;;;;16.85;6.25;;;13.70;99.90;;;;;;9789402;30;20252;-80
2023/10/30 14:37:30;;;;;;;15.20;5.40;;;;;;;;;;9815221;30;20209;-83
2023/10/30 14:42:51;;;;;;;24.42;10.07;;;13.40;1.00;;;;;;9800681;30;20214;-79
2023/10/30 14:48:13;;;;;;;55.07;28.63;;;;;;;;;;9811950;30;20224;-81
2023/10/30 14:53:35;;;;;;;34.10;12.50;;;13.00;99.90;;;;;;9788294;30;20451;-79
2023/10/30 14:58:57;;;;;;;52.97;24.00;;;13.10;99.90;;;;;;9801517;30;20213;-80
2023/10/30 15:04:19;;;;;;;52.20;28.10;;;12.80;64.50;;;;;;9778012;30;20333;-84
2023/10/30 15:09:42;;;;;;;27.70;14.67;;;12.70;1.00;;;;;;9782155;30;20253;-81
2023/10/30 15:15:04;;;;;;;30.00;14.73;;;;;;;;;;9812528;30;20501;-80
2023/10/30 15:20:25;;;;;;;36.90;16.97;;;12.40;23.30;;;;;;9806960;30;20214;-78
2023/10/30 15:25:47;;;;;;;37.43;20.37;;;12.30;1.00;;;;;;9832270;30;20214;-82
2023/10/30 15:31:08;;;;;;;28.80;14.33;;;12.10;99.90;;;;;;9819537;30;20316;-81
2023/10/30 15:36:29;;;;;;;23.70;11.90;;;12.10;99.90;;;;;;9819109;30;20691;-79
2023/10/30 15:41:51;;;;;;;23.17;9.90;;;12.00;99.90;;;;;;9821928;30;20436;-78
2023/10/30 15:47:12;;;;;;;21.73;9.53;;;11.70;1.00;;;;;;9864208;30;20285;-80
2023/10/30 15:52:38;;;;;;;17.67;8.40;;;11.80;1.00;;;;;;9856518;30;20297;-77
2023/10/30 15:57:59;;;;;;;13.67;8.00;;;11.60;1.00;;;;;;9810602;30;20396;-80
2023/10/30 16:03:21;;;;;;;14.73;8.80;;;;;;;;;;9822795;30;20246;-78
2023/10/30 16:08:45;;;;;;;12.07;7.50;;;;;;;;;;9835573;30;20229;-80
2023/10/30 16:14:07;;;;;;;11.13;6.43;;;;;;;;;;9821086;30;20241;-79
2023/10/30 16:19:28;;;;;;;13.10;6.87;;;11.50;99.90;;;;;;9795679;30;20214;-79
2023/10/30 16:24:50;;;;;;;16.20;9.53;;;11.40;99.90;;;;;;9818342;30;20436;-79
2023/10/30 16:30:12;;;;;;;24.50;13.77;;;11.30;99.90;;;;;;9819538;30;20231;-79
2023/10/30 16:35:33;;;;;;;32.03;19.00;;;;;;;;;;9819557;30;20204;-79
2023/10/30 16:40:55;;;;;;;34.50;20.13;;;;;;;;;;9794532;30;20497;-79
2023/10/30 16:46:17;;;;;;;70.07;40.33;;;;;;;;;;9820811;30;20208;-79
2023/10/30 16:51:38;;;;;;;91.53;54.13;;;;;;;;;;9819688;30;20281;-79
2023/10/30 16:57:00;;;;;;;94.07;55.10;;;;;;;;;;9820344;30;20214;-79
2023/10/30 17:02:22;;;;;;;105.60;61.70;;;;;;;;;;9819324;30;20253;-79
2023/10/30 17:07:45;;;;;;;88.67;52.43;;;;;;;;;;9819632;30;20280;-79
2023/10/30 17:13:08;;;;;;;75.70;44.83;;;10.70;1.00;;;;;;9819851;30;20248;-79
2023/10/30 17:18:29;;;;;;;69.50;41.00;;;10.40;1.00;;;;;;9821350;30;20204;-80
2023/10/30 17:23:50;;;;;;;69.33;40.57;;;10.30;1.00;;;;;;9819155;30;20207;-79
2023/10/30 17:29:12;;;;;;;59.50;34.43;;;10.20;1.00;;;;;;9820269;30;20369;-79
2023/10/30 17:34:33;;;;;;;56.50;34.17;;;;;;;;;;9819027;30;20252;-79
2023/10/30 17:40:01;;;;;;;54.00;30.70;;;;;;;;;;9818930;30;20208;-79
2023/10/30 17:45:23;;;;;;;56.80;28.90;;;;;;;;;;9817140;30;20423;-79
2023/10/30 17:50:44;;;;;;;54.00;31.27;;;;;;;;;;9817338;30;20449;-79
2023/10/30 17:56:06;;;;;;;55.00;32.13;;;;;;;;;;9804969;30;20213;-79
2023/10/30 18:01:27;;;;;;;54.40;31.23;;;9.80;1.00;;;;;;9814247;30;20235;-78
2023/10/30 18:06:48;;;;;;;45.23;26.40;;;9.90;1.00;;;;;;9816738;30;20209;-79
2023/10/30 18:12:11;;;;;;;44.93;23.03;;;9.70;1.00;;;;;;9817838;30;20258;-79
2023/10/30 18:17:32;;;;;;;34.03;20.13;;;9.70;1.00;;;;;;9792220;30;20443;-79
2023/10/30 18:22:53;;;;;;;32.67;20.00;;;9.60;1.00;;;;;;9804573;30;20228;-79
2023/10/30 18:28:16;;;;;;;32.13;19.97;;;9.50;1.00;;;;;;9817819;30;20252;-80
2023/10/30 18:33:37;;;;;;;41.57;25.33;;;9.40;1.00;;;;;;9817386;30;20260;-79
2023/10/30 18:38:59;;;;;;;53.40;31.17;;;9.40;1.00;;;;;;9816795;30;20270;-79
2023/10/30 18:44:20;;;;;;;48.00;29.20;;;9.30;1.00;;;;;;9803996;30;20214;-80
2023/10/30 18:49:42;;;;;;;44.27;27.70;;;9.30;1.00;;;;;;9816197;30;20306;-79
2023/10/30 18:55:03;;;;;;;43.77;26.23;;;9.30;1.00;;;;;;9816257;30;20257;-79
2023/10/30 19:00:25;;;;;;;56.87;30.93;;;9.40;1.00;;;;;;9817148;30;20254;-79
2023/10/30 19:05:47;;;;;;;57.57;35.67;;;9.40;1.00;;;;;;9790291;30;20225;-79
2023/10/30 19:11:08;;;;;;;52.27;33.10;;;9.40;2.40;;;;;;9822789;30;20230;-79
2023/10/30 19:16:29;;;;;;;44.77;28.07;;;9.40;98.70;;;;;;9810156;30;20208;-80
2023/10/30 19:21:50;;;;;;;43.03;27.67;;;9.50;85.00;;;;;;9822646;30;20204;-79
2023/10/30 19:27:11;;;;;;;35.17;23.73;;;9.50;99.90;;;;;;9809550;30;20258;-79
2023/10/30 19:32:33;;;;;;;31.50;19.33;;;9.50;99.90;;;;;;9808906;30;20253;-78
2023/10/30 19:37:54;;;;;;;30.77;19.23;;;9.50;99.90;;;;;;9822116;30;20208;-78
2023/10/30 19:43:15;;;;;;;29.53;19.93;;;9.40;99.90;;;;;;9822351;30;20548;-79
2023/10/30 19:48:36;;;;;;;30.30;19.83;;;9.40;99.90;;;;;;9820403;30;20515;-79
2023/10/30 19:53:58;;;;;;;28.97;18.90;;;9.30;99.90;;;;;;9808438;30;20240;-80
2023/10/30 19:59:19;;;;;;;40.90;25.13;;;9.20;70.60;;;;;;9819217;30;20248;-79
2023/10/30 20:04:40;;;;;;;41.43;25.67;;;9.20;41.40;;;;;;9819887;30;20331;-79
2023/10/30 20:10:02;;;;;;;36.10;24.10;;;9.20;53.80;;;;;;9820499;30;20398;-79
2023/10/30 20:15:24;;;;;;;34.17;22.60;;;9.10;89.40;;;;;;9820446;30;20225;-78
2023/10/30 20:20:46;;;;;;;28.20;20.70;;;;;;;;;;9820154;30;20196;-79
2023/10/30 20:26:09;;;;;;;36.70;21.63;;;;;;;;;;9784206;30;20555;-78
2023/10/30 20:31:30;;;;;;;28.63;20.70;;;;;;;;;;9783593;30;20294;-79
2023/10/30 20:36:52;;;;;;;32.27;21.43;;;;;;;;;;9807079;30;20250;-78
2023/10/30 20:42:13;;;;;;;30.07;20.63;;;8.80;12.80;;;;;;9819905;30;20218;-79
2023/10/30 20:47:34;;;;;;;28.97;19.50;;;8.80;1.00;;;;;;9818472;30;20210;-78
2023/10/30 20:52:55;;;;;;;32.23;21.27;;;8.90;6.30;;;;;;9820079;30;20232;-78
2023/10/30 20:58:16;;;;;;;33.20;21.20;;;9.00;28.80;;;;;;9819646;30;20318;-79
2023/10/30 21:03:37;;;;;;;38.03;25.20;;;9.00;83.70;;;;;;9812967;30;20253;-79
2023/10/30 21:09:00;;;;;;;43.40;27.13;;;9.00;35.40;;;;;;9819615;30;20226;-78
2023/10/30 21:14:21;;;;;;;37.23;25.60;;;9.00;88.70;;;;;;9830452;30;20301;-79
2023/10/30 21:19:42;;;;;;;31.93;21.77;;;9.00;99.90;;;;;;9818186;30;20210;-79
2023/10/30 21:25:04;;;;;;;24.40;16.90;;;9.10;99.90;;;;;;9817745;30;20211;-79
2023/10/30 21:30:25;;;;;;;24.80;15.37;;;9.20;99.90;;;;;;9817737;30;20391;-78
2023/10/30 21:35:47;;;;;;;23.20;14.80;;;9.20;99.90;;;;;;9806122;30;20206;-79
2023/10/30 21:41:08;;;;;;;22.60;14.00;;;9.10;99.90;;;;;;9818963;30;20518;-78
2023/10/30 21:46:29;;;;;;;21.40;14.77;;;9.10;99.90;;;;;;9818614;30;20365;-78
2023/10/30 21:51:50;;;;;;;32.53;20.20;;;9.00;93.10;;;;;;9805336;30;20230;-78
2023/10/30 21:57:12;;;;;;;29.10;19.17;;;9.00;33.80;;;;;;9817351;30;20211;-79
2023/10/30 22:02:33;;;;;;;32.23;20.80;;;9.00;93.30;;;;;;9803878;30;20248;-79
2023/10/30 22:07:54;;;;;;;37.70;24.00;;;9.00;68.70;;;;;;9817212;30;20215;-80
2023/10/30 22:13:15;;;;;;;37.77;22.23;;;8.90;39.60;;;;;;9816978;30;20250;-79
2023/10/30 22:18:36;;;;;;;36.20;19.80;;;8.90;58.80;;;;;;9817679;30;20256;-79
2023/10/30 22:23:58;;;;;;;30.13;15.87;;;8.90;50.70;;;;;;9817819;30;20230;-79
2023/10/30 22:29:18;;;;;;;27.17;15.17;;;8.90;62.20;;;;;;9816856;30;20204;-79
2023/10/30 22:34:40;;;;;;;24.97;14.90;;;9.00;99.90;;;;;;9786253;30;20531;-79
2023/10/30 22:40:02;;;;;;;36.53;18.70;;;9.00;99.90;;;;;;9787411;30;20407;-79
2023/10/30 22:45:23;;;;;;;37.63;19.93;;;9.10;99.90;;;;;;9794554;30;20204;-79
2023/10/30 22:50:44;;;;;;;34.73;19.40;;;9.10;99.90;;;;;;9823460;30;20227;-79
2023/10/30 22:56:06;;;;;;;36.80;19.73;;;9.10;99.90;;;;;;9823315;30;20223;-79
2023/10/30 23:01:27;;;;;;;39.30;21.57;;;9.10;99.90;;;;;;9793832;30;20316;-80
2023/10/30 23:06:48;;;;;;;45.07;22.40;;;9.20;99.90;;;;;;9812350;30;20244;-79
2023/10/30 23:12:10;;;;;;;39.70;19.17;;;9.20;99.90;;;;;;9814156;30;20240;-79
2023/10/30 23:17:32;;;;;;;46.73;20.77;;;9.20;99.90;;;;;;9823527;30;20200;-80
2023/10/30 23:22:54;;;;;;;56.40;25.53;;;9.30;99.90;;;;;;9830040;30;20228;-79
2023/10/30 23:28:16;;;;;;;54.80;26.07;;;9.30;99.90;;;;;;9824147;30;20524;-79
2023/10/30 23:33:37;;;;;;;71.57;33.43;;;9.40;99.90;;;;;;9810386;30;20237;-78
2023/10/30 23:38:58;;;;;;;87.80;35.07;;;9.50;99.90;;;;;;9822760;30;20230;-78
2023/10/30 23:44:20;;;;;;;71.30;32.60;;;9.50;99.90;;;;;;9821667;30;20201;-79
2023/10/30 23:49:41;;;;;;;69.40;32.43;;;9.60;99.90;;;;;;9821573;30;20212;-79
2023/10/30 23:55:03;;;;;;;66.27;29.27;;;9.60;99.90;;;;;;9821198;30;20307;-79
